createdAt,value
2023-02-24T00:02:05.982Z,6.38
2023-02-24T00:04:35.909Z,6.33
2023-02-24T00:07:03.088Z,6.34
2023-02-24T00:09:31.961Z,6.34
2023-02-24T00:12:13.260Z,6.30
2023-02-24T00:14:42.556Z,6.33
2023-02-24T00:17:10.608Z,6.32
2023-02-24T00:19:38.520Z,6.29
2023-02-24T00:22:07.626Z,6.28
2023-02-24T00:24:35.826Z,6.26
2023-02-24T00:27:08.007Z,6.15
2023-02-24T00:29:37.871Z,6.25
2023-02-24T00:32:07.514Z,6.22
2023-02-24T00:34:37.036Z,6.20
2023-02-24T00:37:07.074Z,6.21
2023-02-24T00:39:35.766Z,6.19
2023-02-24T00:42:05.862Z,6.17
2023-02-24T00:44:36.259Z,6.17
2023-02-24T00:47:05.129Z,6.18
2023-02-24T00:49:36.097Z,6.18
2023-02-24T00:52:08.250Z,6.18
2023-02-24T00:54:38.349Z,6.17
2023-02-24T00:57:08.416Z,6.13
2023-02-24T00:59:36.351Z,6.15
2023-02-24T01:02:04.060Z,6.13
2023-02-24T01:04:31.205Z,6.09
2023-02-24T01:07:00.816Z,6.04
2023-02-24T01:09:31.301Z,6.06
2023-02-24T01:12:18.401Z,6.05
2023-02-24T01:14:49.908Z,6.06
2023-02-24T01:17:18.994Z,6.04
2023-02-24T01:19:49.618Z,6.07
2023-02-24T01:22:18.685Z,6.08
2023-02-24T01:24:46.458Z,6.07
2023-02-24T01:27:14.944Z,6.05
2023-02-24T01:29:41.847Z,6.09
2023-02-24T01:32:17.234Z,6.06
2023-02-24T01:34:44.957Z,6.07
2023-02-24T01:37:16.583Z,6.05
2023-02-24T01:39:45.854Z,6.05
2023-02-24T01:42:17.144Z,6.04
2023-02-24T01:44:43.964Z,6.04
2023-02-24T01:47:11.371Z,6.02
2023-02-24T01:49:42.517Z,5.97
2023-02-24T01:52:24.433Z,5.95
2023-02-24T01:55:04.189Z,5.93
2023-02-24T01:57:36.124Z,5.88
2023-02-24T02:00:32.132Z,5.86
2023-02-24T02:03:08.271Z,5.84
2023-02-24T02:05:35.732Z,5.79
2023-02-24T02:08:05.312Z,5.80
2023-02-24T02:10:34.095Z,5.78
2023-02-24T02:13:04.780Z,5.75
2023-02-24T02:15:37.662Z,5.71
2023-02-24T02:18:21.146Z,5.71
2023-02-24T02:21:19.092Z,5.66
2023-02-24T02:24:04.795Z,5.61
2023-02-24T02:27:04.625Z,5.57
2023-02-24T02:29:46.709Z,5.54
2023-02-24T02:32:17.401Z,5.50
2023-02-24T02:35:13.115Z,5.47
2023-02-24T02:38:04.586Z,5.40
2023-02-24T02:41:17.727Z,5.39
2023-02-24T02:43:59.718Z,5.31
2023-02-24T02:46:35.977Z,5.33
2023-02-24T02:49:38.925Z,5.34
2023-02-24T02:52:14.175Z,5.32
2023-02-24T02:55:00.490Z,5.28
2023-02-24T02:57:30.441Z,5.23
2023-02-24T03:00:00.376Z,5.26
2023-02-24T03:02:38.386Z,5.26
2023-02-24T03:05:10.142Z,5.26
2023-02-24T03:07:45.497Z,5.26
2023-02-24T03:10:22.392Z,5.25
2023-02-24T03:12:55.454Z,5.27
2023-02-24T03:15:26.740Z,5.24
2023-02-24T03:18:02.922Z,5.25
2023-02-24T03:20:35.802Z,5.22
2023-02-24T03:23:16.909Z,5.23
2023-02-24T03:26:01.569Z,5.24
2023-02-24T03:28:37.567Z,5.26
2023-02-24T03:31:46.310Z,5.27
2023-02-24T03:34:20.496Z,5.29
2023-02-24T03:36:48.315Z,5.28
2023-02-24T03:39:16.830Z,5.26
2023-02-24T03:42:20.395Z,5.28
2023-02-24T05:03:17.619Z,5.05
2023-02-24T05:05:56.848Z,5.07
2023-02-24T05:08:25.210Z,5.10
2023-02-24T05:10:52.391Z,5.11
2023-02-24T05:13:27.531Z,5.15
2023-02-24T05:15:56.763Z,5.14
2023-02-24T05:18:24.131Z,5.19
2023-02-24T05:21:13.381Z,5.20
2023-02-24T05:23:45.379Z,5.20
2023-02-24T05:26:20.634Z,5.22
2023-02-24T07:14:08.193Z,5.37
2023-02-24T07:16:36.127Z,5.49
2023-02-24T07:19:11.371Z,5.53
2023-02-24T07:21:40.452Z,5.55
2023-02-24T07:24:08.986Z,5.60
2023-02-24T07:26:35.871Z,5.61
2023-02-24T07:29:06.577Z,5.61
2023-02-24T07:31:34.642Z,5.61
2023-02-24T07:34:02.291Z,5.63
2023-02-24T07:36:30.573Z,5.65
2023-02-24T07:38:59.267Z,5.69
2023-02-24T07:41:26.649Z,5.70
2023-02-24T08:19:23.975Z,5.70
2023-02-24T08:21:53.194Z,5.75
2023-02-24T08:24:25.380Z,5.84
2023-02-24T08:27:06.871Z,5.96
2023-02-24T08:29:57.940Z,6.07
2023-02-24T08:32:44.123Z,6.14
2023-02-24T08:35:16.962Z,6.20
2023-02-24T08:37:49.376Z,6.21
2023-02-24T08:40:34.343Z,6.14
2023-02-24T08:43:33.165Z,6.15
2023-02-24T08:46:18.776Z,6.25
2023-02-24T08:48:55.709Z,6.40
2023-02-24T08:51:34.979Z,6.55
2023-02-24T08:54:11.734Z,6.71
2023-02-24T08:56:43.799Z,6.80
2023-02-24T08:59:29.512Z,6.92
2023-02-24T09:02:18.372Z,7.02
2023-02-24T09:04:47.258Z,7.08
2023-02-24T09:07:16.912Z,7.15
2023-02-24T09:09:44.336Z,7.23
2023-02-24T09:12:22.325Z,7.41
2023-02-24T09:14:50.338Z,7.74
2023-02-24T09:17:20.860Z,7.88
2023-02-24T09:19:52.031Z,8.10
2023-02-24T09:22:53.865Z,8.31
2023-02-24T09:25:40.813Z,8.58
2023-02-24T09:28:18.007Z,8.67
2023-02-24T09:31:00.629Z,8.74
2023-02-24T09:33:39.185Z,8.68
2023-02-24T09:36:20.533Z,8.74
2023-02-24T09:39:01.540Z,8.80
2023-02-24T09:41:55.850Z,8.76
2023-02-24T09:44:33.555Z,8.62
2023-02-24T09:47:00.537Z,8.58
2023-02-24T09:49:40.187Z,8.54
2023-02-24T09:52:17.080Z,8.41
2023-02-24T09:55:05.890Z,8.50
2023-02-24T09:58:02.058Z,8.62
2023-02-24T10:00:33.833Z,8.56
2023-02-24T10:03:19.816Z,8.65
2023-02-24T10:06:12.380Z,8.73
2023-02-24T10:08:46.007Z,8.74
2023-02-24T10:11:14.835Z,8.74
2023-02-24T10:13:49.655Z,8.75
2023-02-24T10:16:24.217Z,8.70
2023-02-24T10:19:17.524Z,8.66
2023-02-24T10:22:28.698Z,8.68
2023-02-24T10:25:36.483Z,8.71
2023-02-24T10:28:15.143Z,8.81
2023-02-24T10:31:25.636Z,9.15
2023-02-24T10:33:59.768Z,9.51
2023-02-24T10:36:36.192Z,9.95
2023-02-24T10:39:20.834Z,10.28
2023-02-24T10:42:15.790Z,10.28
2023-02-24T10:45:02.350Z,10.34
2023-02-24T10:47:31.348Z,10.51
2023-02-24T10:50:03.279Z,10.67
2023-02-24T10:52:57.371Z,10.85
2023-02-24T10:55:50.501Z,10.78
2023-02-24T10:58:38.317Z,10.51
2023-02-24T11:01:28.030Z,10.57
2023-02-24T11:04:19.705Z,10.72
2023-02-24T11:06:52.932Z,10.83
2023-02-24T11:09:28.615Z,10.91
2023-02-24T11:12:34.964Z,10.97
2023-02-24T11:15:25.515Z,11.01
2023-02-24T11:17:58.997Z,11.28
2023-02-24T11:20:49.068Z,11.50
2023-02-24T11:23:24.889Z,11.82
2023-02-24T11:25:58.425Z,11.96
2023-02-24T11:28:43.737Z,12.09
2023-02-24T11:31:26.246Z,12.13
2023-02-24T11:33:53.323Z,12.13
2023-02-24T11:36:42.057Z,12.11
2023-02-24T11:39:21.552Z,12.20
2023-02-24T11:41:55.665Z,12.27
2023-02-24T11:44:36.448Z,12.42
2023-02-24T11:47:09.877Z,12.40
2023-02-24T11:49:48.544Z,12.23
2023-02-24T11:52:22.685Z,12.17
2023-02-24T11:54:55.209Z,12.31
2023-02-24T11:57:46.699Z,12.27
2023-02-24T12:00:16.605Z,12.46
2023-02-24T12:03:04.799Z,12.47
2023-02-24T12:05:37.259Z,12.52
2023-02-24T12:08:16.297Z,12.62
2023-02-24T12:10:52.596Z,12.64
2023-02-24T12:13:56.932Z,12.68
2023-02-24T12:16:33.452Z,12.68
2023-02-24T12:19:21.014Z,12.49
2023-02-24T12:21:53.563Z,12.39
2023-02-24T12:24:21.563Z,12.30
2023-02-24T12:27:26.357Z,12.21
2023-02-24T12:30:48.786Z,12.16
2023-02-24T12:33:43.063Z,12.16
2023-02-24T12:36:39.437Z,12.16
2023-02-24T12:39:21.451Z,12.22
2023-02-24T12:42:01.404Z,11.90
2023-02-24T12:44:37.728Z,11.63
2023-02-24T12:47:19.512Z,11.27
2023-02-24T12:50:16.819Z,11.13
2023-02-24T12:52:52.706Z,11.01
2023-02-24T12:55:22.800Z,10.95
2023-02-24T12:58:03.670Z,10.83
2023-02-24T13:01:05.825Z,10.81
2023-02-24T13:03:49.730Z,10.80
2023-02-24T13:06:37.887Z,10.78
2023-02-24T13:09:29.599Z,10.78
2023-02-24T13:12:14.950Z,10.90
2023-02-24T13:14:43.299Z,10.89
2023-02-24T13:17:13.038Z,10.80
2023-02-24T13:19:41.669Z,10.76
2023-02-24T13:22:19.792Z,10.79
2023-02-24T13:25:10.005Z,10.76
2023-02-24T13:27:43.178Z,10.61
2023-02-24T13:30:17.903Z,10.53
2023-02-24T13:32:47.144Z,10.41
2023-02-24T13:35:13.963Z,10.44
2023-02-24T13:37:42.761Z,10.43
2023-02-24T13:40:18.190Z,10.40
2023-02-24T13:42:56.128Z,10.32
2023-02-24T13:45:26.815Z,10.19
2023-02-24T13:48:00.711Z,10.26
2023-02-24T13:50:37.685Z,10.32
2023-02-24T13:53:41.558Z,10.33
2023-02-24T13:56:20.596Z,10.38
2023-02-24T13:58:50.652Z,10.43
2023-02-24T14:01:19.008Z,10.37
2023-02-24T14:04:07.350Z,10.34
2023-02-24T14:06:34.578Z,10.51
2023-02-24T14:09:04.606Z,10.57
2023-02-24T14:11:35.981Z,10.59
2023-02-24T14:14:03.791Z,10.54
2023-02-24T14:16:40.024Z,10.52
2023-02-24T14:19:14.555Z,10.50
2023-02-24T14:21:52.470Z,10.48
2023-02-24T14:24:20.574Z,10.48
2023-02-24T14:26:56.524Z,10.43
2023-02-24T14:29:26.990Z,10.37
2023-02-24T14:31:56.500Z,10.37
2023-02-24T14:34:31.105Z,10.32
2023-02-24T14:37:01.568Z,10.29
2023-02-24T14:39:30.753Z,10.29
2023-02-24T14:42:12.413Z,10.31
2023-02-24T14:44:49.153Z,10.30
2023-02-24T14:47:18.293Z,10.27
2023-02-24T14:50:00.013Z,10.27
2023-02-24T14:52:32.574Z,10.25
2023-02-24T14:55:03.626Z,10.24
2023-02-24T14:57:35.569Z,10.26
2023-02-24T15:00:17.524Z,10.11
2023-02-24T15:02:50.902Z,9.93
2023-02-24T15:05:17.980Z,9.84
2023-02-24T15:07:45.772Z,9.67
2023-02-24T15:10:31.312Z,9.65
2023-02-24T15:13:09.900Z,9.68
2023-02-24T15:15:40.634Z,9.74
2023-02-24T15:18:19.816Z,9.75
2023-02-24T15:21:04.928Z,9.77
2023-02-24T15:23:37.593Z,9.78
2023-02-24T15:26:08.936Z,9.63
2023-02-24T15:28:37.780Z,9.58
2023-02-24T15:31:18.943Z,9.53
2023-02-24T15:33:55.490Z,9.58
2023-02-24T15:36:27.022Z,9.50
2023-02-24T15:38:58.233Z,9.49
2023-02-24T15:41:25.747Z,9.53
2023-02-24T15:43:56.505Z,9.58
2023-02-24T15:46:30.673Z,9.58
2023-02-24T15:49:01.953Z,9.58
2023-02-24T15:51:42.273Z,9.65
2023-02-24T15:54:15.872Z,9.71
2023-02-24T15:56:43.788Z,9.72
2023-02-24T15:59:14.947Z,9.76
2023-02-24T16:01:41.851Z,9.78
2023-02-24T16:04:11.539Z,9.80
2023-02-24T16:06:42.299Z,9.78
2023-02-24T16:09:14.528Z,9.81
2023-02-24T16:11:45.698Z,9.78
2023-02-24T16:14:16.748Z,9.81
2023-02-24T16:16:44.654Z,9.81
2023-02-24T16:19:14.944Z,9.79
2023-02-24T16:21:44.115Z,9.75
2023-02-24T16:24:10.925Z,9.76
2023-02-24T16:26:40.306Z,9.72
2023-02-24T16:29:11.824Z,9.67
2023-02-24T16:31:40.072Z,9.63
2023-02-24T16:34:08.060Z,9.59
2023-02-24T16:36:36.175Z,9.53
2023-02-24T16:39:05.257Z,9.47
2023-02-24T16:41:32.205Z,9.46
2023-02-24T16:43:59.059Z,9.41
2023-02-24T16:46:32.985Z,9.38
2023-02-24T16:48:59.840Z,9.32
2023-02-24T16:51:26.866Z,9.27
2023-02-24T16:53:53.724Z,9.30
2023-02-24T16:56:20.966Z,9.27
2023-02-24T16:58:47.997Z,9.26
2023-02-24T17:01:20.565Z,9.24
2023-02-24T17:03:50.202Z,9.27
2023-02-24T17:06:17.084Z,9.27
2023-02-24T17:08:46.193Z,9.27
2023-02-24T17:11:15.592Z,9.18
2023-02-24T17:13:42.410Z,9.15
2023-02-24T17:16:09.483Z,9.19
2023-02-24T17:18:36.585Z,9.17
2023-02-24T17:21:04.808Z,9.10
2023-02-24T17:23:32.550Z,9.09
2023-02-24T17:26:02.216Z,9.12
2023-02-24T17:28:29.489Z,9.12
2023-02-24T17:30:56.521Z,9.14
2023-02-24T17:33:23.655Z,9.14
2023-02-24T17:35:50.734Z,9.11
2023-02-24T17:38:20.698Z,9.06
2023-02-24T17:40:48.086Z,8.91
2023-02-24T17:43:15.184Z,8.95
2023-02-24T17:45:45.019Z,8.94
2023-02-24T17:48:13.590Z,8.94
2023-02-24T17:50:44.973Z,8.90
2023-02-24T17:53:12.146Z,8.85
2023-02-24T17:55:40.354Z,8.85
2023-02-24T17:58:09.997Z,8.87
2023-02-24T18:00:38.467Z,8.86
2023-02-24T18:03:05.625Z,8.85
2023-02-24T18:05:32.717Z,8.79
2023-02-24T18:07:59.918Z,8.76
2023-02-24T18:10:27.550Z,8.74
2023-02-24T18:12:54.380Z,8.72
2023-02-24T18:15:21.201Z,8.71
2023-02-24T18:17:48.086Z,8.67
2023-02-24T18:20:15.029Z,8.62
2023-02-24T18:22:41.959Z,8.64
2023-02-24T18:25:09.129Z,8.69
2023-02-24T18:27:36.060Z,8.72
2023-02-24T18:30:03.015Z,8.76
2023-02-24T18:32:30.172Z,8.77
2023-02-24T18:34:57.203Z,8.72
2023-02-24T18:37:24.031Z,8.67
2023-02-24T18:39:53.429Z,8.63
2023-02-24T18:42:20.482Z,8.48
2023-02-24T18:44:47.565Z,8.49
2023-02-24T18:47:14.406Z,8.42
2023-02-24T18:49:41.343Z,8.38
2023-02-24T18:52:08.199Z,8.33
2023-02-24T18:54:35.029Z,8.28
2023-02-24T18:57:02.156Z,8.25
2023-02-24T18:59:29.493Z,8.21
2023-02-24T19:01:57.224Z,8.15
2023-02-24T19:04:25.372Z,8.09
2023-02-24T19:06:53.321Z,8.03
2023-02-24T19:09:21.912Z,7.99
2023-02-24T19:11:50.334Z,7.94
2023-02-24T19:14:17.600Z,7.94
2023-02-24T19:16:45.402Z,7.87
2023-02-24T19:19:14.154Z,7.86
2023-02-24T19:21:41.269Z,7.83
2023-02-24T19:24:11.274Z,7.79
2023-02-24T19:26:39.037Z,7.79
2023-02-24T19:29:06.672Z,7.75
2023-02-24T19:31:34.657Z,7.72
2023-02-24T19:34:08.620Z,7.73
2023-02-24T19:36:38.506Z,7.72
2023-02-24T19:39:09.767Z,7.70
2023-02-24T19:41:38.112Z,7.67
2023-02-24T19:44:05.444Z,7.67
2023-02-24T19:46:34.408Z,7.63
2023-02-24T19:49:02.471Z,7.62
2023-02-24T19:51:31.435Z,7.58
2023-02-24T19:54:02.205Z,7.53
2023-02-24T19:56:31.901Z,7.53
2023-02-24T19:59:01.049Z,7.50
2023-02-24T20:01:29.768Z,7.49
2023-02-24T20:04:00.363Z,7.43
2023-02-24T20:06:33.802Z,7.39
2023-02-24T20:09:02.006Z,7.38
2023-02-24T20:11:30.214Z,7.32
2023-02-24T20:13:57.638Z,7.34
2023-02-24T20:16:26.402Z,7.34
2023-02-24T20:18:55.716Z,7.32
2023-02-24T20:21:23.242Z,7.27
2023-02-24T20:23:51.307Z,7.19
2023-02-24T20:26:18.773Z,7.13
2023-02-24T20:28:47.665Z,7.02
2023-02-24T20:31:18.998Z,7.08
2023-02-24T20:33:48.073Z,7.04
2023-02-24T20:36:26.692Z,7.02
2023-02-24T20:38:54.605Z,7.04
2023-02-24T20:41:22.126Z,7.02
2023-02-24T20:43:49.527Z,7.02
2023-02-24T20:46:26.279Z,7.00
2023-02-24T20:48:56.848Z,6.93
2023-02-24T20:51:26.543Z,6.78
2023-02-24T20:53:58.195Z,6.78
2023-02-24T20:56:28.087Z,6.80
2023-02-24T20:59:00.180Z,6.76
2023-02-24T21:01:28.458Z,6.74
2023-02-24T21:03:55.586Z,6.65
2023-02-24T21:06:23.273Z,6.54
2023-02-24T21:08:51.304Z,6.53
2023-02-24T21:11:18.168Z,6.49
2023-02-24T21:13:47.707Z,6.47
2023-02-24T21:16:15.881Z,6.42
2023-02-24T21:18:44.774Z,6.44
2023-02-24T21:21:12.682Z,6.48
2023-02-24T21:23:39.654Z,6.39
2023-02-24T21:26:07.202Z,6.32
2023-02-24T21:28:35.205Z,6.33
2023-02-24T21:31:08.180Z,6.37
2023-02-24T21:33:35.496Z,6.37
2023-02-24T21:36:09.388Z,6.39
2023-02-24T21:38:36.885Z,6.42
2023-02-24T21:41:08.540Z,6.46
2023-02-24T21:43:35.759Z,6.48
2023-02-24T21:46:07.221Z,6.49
2023-02-24T21:48:34.130Z,6.50
2023-02-24T21:51:06.091Z,6.53
2023-02-24T21:53:35.791Z,6.48
2023-02-24T21:56:11.238Z,6.50
2023-02-24T21:58:39.578Z,6.46
2023-02-24T22:01:15.247Z,6.40
2023-02-24T22:03:42.206Z,6.32
2023-02-24T22:06:11.197Z,6.22
2023-02-24T22:08:43.254Z,6.23
